createdAt,value
2018-06-11T00:01:41.085Z,19.73
2018-06-11T00:04:09.840Z,21.17
2018-06-11T00:06:38.467Z,20.40
2018-06-11T00:09:08.102Z,18.30
2018-06-11T00:11:37.126Z,17.80
2018-06-11T00:14:05.819Z,15.63
2018-06-11T00:16:34.539Z,14.27
2018-06-11T00:19:03.213Z,13.17
2018-06-11T00:21:32.336Z,11.00
2018-06-11T00:24:01.013Z,10.77
2018-06-11T00:26:29.677Z,9.40
2018-06-11T00:28:58.343Z,10.13
2018-06-11T00:31:27.031Z,10.03
2018-06-11T00:33:55.722Z,8.13
2018-06-11T00:36:24.443Z,9.60
2018-06-11T00:38:53.122Z,7.93
2018-06-11T00:41:21.813Z,9.23
2018-06-11T00:43:50.468Z,9.30
2018-06-11T00:46:19.152Z,8.93
2018-06-11T00:48:47.827Z,8.23
2018-06-11T00:51:16.508Z,8.70
2018-06-11T00:53:45.208Z,9.40
2018-06-11T00:56:13.871Z,11.87
2018-06-11T00:58:42.579Z,9.23
2018-06-11T01:01:11.400Z,9.33
2018-06-11T01:03:40.086Z,9.07
2018-06-11T01:06:08.793Z,7.80
2018-06-11T01:08:37.505Z,10.20
2018-06-11T01:11:06.245Z,10.27
2018-06-11T01:13:34.910Z,9.40
2018-06-11T01:16:03.654Z,10.37
2018-06-11T01:18:32.273Z,9.60
2018-06-11T01:21:01.013Z,9.17
2018-06-11T01:23:29.723Z,10.40
2018-06-11T01:25:58.976Z,11.23
2018-06-11T01:28:27.676Z,10.63
2018-06-11T01:30:56.416Z,10.33
2018-06-11T01:33:25.116Z,8.60
2018-06-11T01:35:53.823Z,9.30
2018-06-11T01:38:22.891Z,9.13
2018-06-11T01:40:51.556Z,7.77
2018-06-11T01:43:20.265Z,9.23
2018-06-11T01:45:48.984Z,6.30
2018-06-11T01:48:17.771Z,8.23
2018-06-11T01:50:46.483Z,6.37
2018-06-11T01:53:15.155Z,8.43
2018-06-11T01:55:43.824Z,9.23
2018-06-11T01:58:12.548Z,7.10
2018-06-11T02:00:41.212Z,7.00
2018-06-11T02:03:09.954Z,7.20
2018-06-11T02:05:38.720Z,8.07
2018-06-11T02:08:07.463Z,7.70
2018-06-11T02:10:36.222Z,7.30
2018-06-11T02:13:04.964Z,11.27
2018-06-11T02:15:33.703Z,7.57
2018-06-11T02:18:02.417Z,7.57
2018-06-11T02:20:31.155Z,9.17
2018-06-11T02:22:59.884Z,7.03
2018-06-11T02:25:30.535Z,8.03
2018-06-11T02:27:59.204Z,7.80
2018-06-11T02:30:27.932Z,9.37
2018-06-11T02:32:56.649Z,8.93
2018-06-11T02:35:25.368Z,7.20
2018-06-11T02:37:54.104Z,7.50
2018-06-11T02:40:22.803Z,10.53
2018-06-11T02:42:51.530Z,7.53
2018-06-11T02:45:20.192Z,8.00
2018-06-11T02:47:48.924Z,7.10
2018-06-11T02:50:17.713Z,7.53
2018-06-11T02:52:46.427Z,6.23
2018-06-11T02:55:15.069Z,7.10
2018-06-11T02:57:43.821Z,6.37
2018-06-11T03:00:12.568Z,6.33
2018-06-11T03:02:41.324Z,7.17
2018-06-11T03:05:10.037Z,10.17
2018-06-11T03:07:38.801Z,7.87
2018-06-11T03:10:07.498Z,7.30
2018-06-11T03:12:36.280Z,9.53
2018-06-11T03:15:05.167Z,12.87
2018-06-11T03:17:33.850Z,6.80
2018-06-11T03:20:02.587Z,7.90
2018-06-11T03:22:31.402Z,6.43
2018-06-11T03:25:00.121Z,6.73
2018-06-11T03:27:29.009Z,6.33
2018-06-11T03:29:57.698Z,7.07
2018-06-11T03:32:26.434Z,6.23
2018-06-11T03:34:55.172Z,6.40
2018-06-11T03:37:23.875Z,5.37
2018-06-11T03:39:52.598Z,4.83
2018-06-11T03:42:21.323Z,6.50
2018-06-11T03:44:50.010Z,5.07
2018-06-11T03:47:18.722Z,4.73
2018-06-11T03:49:47.440Z,4.97
2018-06-11T03:52:16.139Z,6.57
2018-06-11T03:54:44.921Z,6.57
2018-06-11T03:57:13.600Z,4.43
2018-06-11T03:59:42.748Z,5.47
2018-06-11T04:02:11.413Z,6.00
2018-06-11T04:04:40.276Z,8.40
2018-06-11T04:07:09.049Z,5.50
2018-06-11T04:09:37.820Z,4.90
2018-06-11T04:12:06.540Z,4.87
2018-06-11T04:14:35.389Z,6.10
2018-06-11T04:17:04.065Z,4.23
2018-06-11T04:19:32.807Z,6.40
2018-06-11T04:22:01.543Z,7.77
2018-06-11T04:24:30.220Z,4.20
2018-06-11T04:26:58.933Z,6.00
2018-06-11T04:29:27.616Z,6.73
2018-06-11T04:31:56.295Z,4.80
2018-06-11T04:34:24.967Z,6.30
2018-06-11T04:36:53.779Z,4.67
2018-06-11T04:39:22.442Z,4.73
2018-06-11T04:44:27.467Z,4.90
2018-06-11T04:46:56.444Z,5.60
2018-06-11T04:49:25.147Z,4.23
2018-06-11T04:51:53.862Z,8.50
2018-06-11T04:54:22.609Z,13.53
2018-06-11T04:56:51.334Z,6.90
2018-06-11T04:59:20.037Z,8.73
2018-06-11T05:01:48.771Z,4.10
2018-06-11T05:04:17.498Z,5.03
2018-06-11T05:06:46.197Z,5.90
2018-06-11T05:09:14.868Z,5.20
2018-06-11T05:11:43.549Z,6.40
2018-06-11T05:14:12.239Z,3.83
2018-06-11T05:16:41.005Z,3.90
2018-06-11T05:19:09.719Z,4.67
2018-06-11T05:21:38.429Z,4.50
2018-06-11T05:24:07.164Z,6.77
2018-06-11T05:26:35.932Z,5.10
2018-06-11T05:29:04.625Z,4.57
2018-06-11T05:31:33.300Z,6.43
2018-06-11T05:34:06.899Z,9.03
2018-06-11T05:36:35.564Z,4.07
2018-06-11T05:39:06.431Z,6.20
2018-06-11T05:41:35.394Z,5.97
2018-06-11T05:44:04.123Z,7.23
2018-06-11T05:46:32.946Z,7.00
2018-06-11T05:49:20.139Z,5.63
2018-06-11T05:51:50.530Z,6.00
2018-06-11T05:54:20.684Z,4.93
2018-06-11T05:56:50.163Z,6.90
2018-06-11T05:59:20.367Z,5.57
2018-06-11T06:01:49.331Z,7.63
2018-06-11T06:04:18.957Z,5.87
2018-06-11T06:06:47.782Z,7.30
2018-06-11T06:09:16.701Z,8.73
2018-06-11T06:11:45.691Z,7.90
2018-06-11T06:14:14.418Z,7.43
2018-06-11T06:16:44.176Z,8.73
2018-06-11T06:19:12.893Z,6.47
2018-06-11T06:21:41.573Z,6.37
2018-06-11T06:24:10.251Z,7.47
2018-06-11T06:26:39.027Z,7.17
2018-06-11T06:29:08.391Z,4.30
2018-06-11T06:31:37.166Z,6.50
2018-06-11T06:34:06.193Z,5.77
2018-06-11T06:36:36.024Z,5.20
2018-06-11T06:39:07.977Z,5.50
2018-06-11T06:41:36.845Z,7.53
2018-06-11T06:44:05.654Z,5.87
2018-06-11T06:46:34.443Z,6.33
2018-06-11T06:49:03.211Z,7.47
2018-06-11T06:51:31.887Z,5.60
2018-06-11T06:54:00.578Z,6.70
2018-06-11T06:56:29.255Z,10.67
2018-06-11T06:58:57.976Z,5.73
2018-06-11T07:01:26.689Z,7.13
2018-06-11T07:03:55.437Z,7.83
2018-06-11T07:06:24.811Z,7.43
2018-06-11T07:08:53.489Z,8.70
2018-06-11T07:11:22.175Z,6.33
2018-06-11T07:13:50.892Z,12.13
2018-06-11T07:16:19.624Z,6.30
2018-06-11T07:18:48.348Z,5.73
2018-06-11T07:21:17.095Z,6.27
2018-06-11T07:23:45.801Z,7.27
2018-06-11T07:26:14.521Z,7.73
2018-06-11T07:28:43.223Z,10.43
2018-06-11T07:31:11.922Z,5.30
2018-06-11T07:33:40.608Z,8.80
2018-06-11T07:36:09.321Z,7.43
2018-06-11T07:38:38.045Z,11.00
2018-06-11T07:41:07.059Z,7.27
2018-06-11T07:43:35.776Z,5.50
2018-06-11T07:46:04.530Z,4.80
2018-06-11T07:48:33.288Z,10.07
2018-06-11T07:51:01.992Z,5.47
2018-06-11T07:53:30.692Z,7.20
2018-06-11T07:55:59.343Z,6.10
2018-06-11T07:58:28.150Z,6.17
2018-06-11T08:00:56.914Z,6.03
2018-06-11T08:03:25.600Z,9.40
2018-06-11T08:05:54.273Z,6.00
2018-06-11T08:08:23.183Z,7.30
2018-06-11T08:10:51.908Z,8.20
2018-06-11T08:13:20.650Z,5.10
2018-06-11T08:15:49.276Z,8.70
2018-06-11T08:18:17.960Z,8.83
2018-06-11T08:20:46.709Z,8.03
2018-06-11T08:23:15.359Z,7.90
2018-06-11T08:25:44.047Z,9.17
2018-06-11T08:28:12.708Z,6.73
2018-06-11T08:30:41.393Z,7.00
2018-06-11T08:33:10.080Z,4.40
2018-06-11T08:35:38.743Z,5.40
2018-06-11T08:38:07.497Z,7.43
2018-06-11T08:40:36.207Z,3.50
2018-06-11T08:43:04.889Z,3.93
2018-06-11T08:45:33.588Z,5.77
2018-06-11T08:48:02.299Z,6.53
2018-06-11T08:50:31.011Z,9.07
2018-06-11T08:52:59.716Z,6.17
2018-06-11T08:55:28.436Z,4.63
2018-06-11T08:57:57.121Z,4.07
2018-06-11T09:00:25.774Z,3.43
2018-06-11T09:02:54.484Z,4.97
2018-06-11T09:05:23.276Z,4.90
2018-06-11T09:07:51.975Z,4.10
2018-06-11T09:10:21.117Z,5.83
2018-06-11T09:12:49.842Z,7.80
2018-06-11T09:15:19.574Z,5.47
2018-06-11T09:17:48.296Z,4.80
2018-06-11T09:20:17.030Z,4.83
2018-06-11T09:22:45.787Z,4.60
2018-06-11T09:25:14.457Z,4.00
2018-06-11T09:27:43.161Z,8.53
2018-06-11T09:30:11.857Z,5.07
2018-06-11T09:32:40.572Z,5.47
2018-06-11T09:35:09.224Z,9.43
2018-06-11T09:37:37.939Z,8.70
2018-06-11T09:40:06.626Z,7.40
2018-06-11T09:42:35.432Z,6.80
2018-06-11T09:45:04.176Z,4.60
2018-06-11T09:47:32.864Z,11.23
2018-06-11T09:50:01.562Z,7.33
2018-06-11T09:52:30.314Z,5.13
2018-06-11T09:54:59.006Z,6.57
2018-06-11T09:57:27.743Z,6.87
2018-06-11T09:59:56.408Z,4.23
2018-06-11T10:02:25.102Z,8.93
2018-06-11T10:04:53.786Z,9.57
2018-06-11T10:07:22.472Z,5.40
2018-06-11T10:09:51.226Z,4.10
2018-06-11T10:12:19.952Z,6.13
2018-06-11T10:14:48.604Z,8.50
2018-06-11T10:17:17.318Z,4.97
2018-06-11T10:19:46.020Z,4.40
2018-06-11T10:22:14.858Z,3.60
2018-06-11T10:24:43.515Z,3.20
2018-06-11T10:27:12.273Z,7.30
2018-06-11T10:29:40.957Z,4.27
2018-06-11T10:32:09.841Z,6.30
2018-06-11T10:34:38.535Z,5.97
2018-06-11T10:37:07.179Z,5.33
2018-06-11T10:39:35.929Z,6.23
2018-06-11T10:42:04.666Z,4.47
2018-06-11T10:44:33.394Z,9.80
2018-06-11T10:47:02.147Z,4.40
2018-06-11T10:49:30.905Z,6.73
2018-06-11T10:51:59.667Z,5.80
2018-06-11T10:54:29.053Z,8.07
2018-06-11T10:56:57.825Z,4.20
2018-06-11T10:59:26.513Z,5.53
2018-06-11T11:01:55.179Z,4.20
2018-06-11T11:04:23.891Z,6.97
2018-06-11T11:06:52.619Z,3.83
2018-06-11T11:09:21.319Z,7.60
2018-06-11T11:11:50.062Z,7.50
2018-06-11T11:14:18.811Z,6.50
2018-06-11T11:16:47.504Z,6.47
2018-06-11T11:19:16.196Z,4.03
2018-06-11T11:21:44.964Z,7.33
2018-06-11T11:24:13.694Z,6.60
2018-06-11T11:26:42.524Z,7.23
2018-06-11T11:29:11.281Z,6.30
2018-06-11T11:31:40.018Z,9.57
2018-06-11T11:34:08.750Z,10.07
2018-06-11T11:36:37.543Z,5.90
2018-06-11T11:39:08.058Z,6.57
2018-06-11T11:41:36.792Z,4.87
2018-06-11T11:44:05.534Z,6.60
2018-06-11T11:46:34.225Z,7.57
2018-06-11T11:49:02.923Z,5.40
2018-06-11T11:51:31.600Z,5.53
2018-06-11T11:54:00.297Z,5.17
2018-06-11T11:56:28.991Z,8.80
2018-06-11T11:58:57.652Z,8.80
2018-06-11T12:01:26.374Z,6.83
2018-06-11T12:03:55.064Z,6.60
2018-06-11T12:06:23.797Z,6.40
2018-06-11T12:08:52.506Z,9.67
2018-06-11T12:11:21.172Z,5.63
2018-06-11T12:13:49.859Z,7.33
2018-06-11T12:16:18.584Z,10.83
2018-06-11T12:18:47.346Z,9.37
2018-06-11T12:21:16.016Z,6.70
2018-06-11T12:23:44.684Z,5.93
2018-06-11T12:26:13.380Z,7.50
2018-06-11T12:28:42.154Z,7.27
2018-06-11T12:31:10.860Z,8.70
2018-06-11T12:33:39.699Z,7.63
2018-06-11T12:36:08.411Z,13.03
2018-06-11T12:38:37.186Z,11.87
2018-06-11T12:41:06.035Z,5.30
2018-06-11T12:43:34.726Z,6.90
2018-06-11T12:46:03.514Z,5.10
2018-06-11T12:48:32.297Z,6.10
2018-06-11T12:51:01.069Z,9.50
2018-06-11T12:53:29.850Z,7.87
2018-06-11T12:56:06.354Z,6.63
2018-06-11T12:58:35.048Z,4.53
2018-06-11T13:01:03.941Z,7.73
2018-06-11T13:03:32.749Z,9.10
2018-06-11T13:06:01.476Z,8.67
2018-06-11T13:08:30.188Z,10.73
2018-06-11T13:10:58.871Z,7.30
2018-06-11T13:13:27.639Z,16.37
2018-06-11T13:15:56.351Z,17.20
2018-06-11T13:18:25.159Z,22.63
2018-06-11T13:20:53.880Z,28.07
2018-06-11T13:23:22.545Z,20.90
2018-06-11T13:25:51.251Z,16.17
2018-06-11T13:28:20.028Z,16.07
2018-06-11T13:30:48.767Z,22.10
2018-06-11T13:33:17.618Z,24.13
2018-06-11T13:35:47.092Z,11.87
2018-06-11T13:38:15.919Z,10.00
2018-06-11T13:40:44.854Z,7.80
2018-06-11T13:43:13.930Z,9.13
2018-06-11T13:45:42.960Z,5.87
2018-06-11T13:48:11.843Z,7.63
2018-06-11T13:50:40.489Z,7.43
2018-06-11T13:53:09.783Z,4.40
2018-06-11T13:55:38.648Z,6.40
2018-06-11T13:58:07.576Z,5.67
2018-06-11T14:00:36.378Z,7.13
2018-06-11T14:03:05.323Z,18.93
2018-06-11T14:05:34.113Z,19.23
2018-06-11T14:08:02.918Z,8.93
2018-06-11T14:10:31.643Z,10.53
2018-06-11T14:13:00.339Z,15.03
2018-06-11T14:15:29.153Z,16.77
2018-06-11T14:17:58.299Z,15.87
2018-06-11T14:20:26.978Z,16.07
2018-06-11T14:22:55.667Z,13.93
2018-06-11T14:25:24.399Z,15.50
2018-06-11T14:27:53.060Z,16.43
2018-06-11T14:30:21.822Z,11.37
2018-06-11T14:32:50.536Z,6.67
2018-06-11T14:35:19.216Z,5.83
2018-06-11T14:37:47.951Z,5.10
2018-06-11T14:40:16.641Z,7.67
2018-06-11T14:42:45.420Z,8.30
2018-06-11T14:45:14.148Z,13.47
2018-06-11T14:47:42.888Z,21.90
2018-06-11T14:50:11.927Z,13.10
2018-06-11T14:52:40.661Z,11.87
2018-06-11T14:55:09.338Z,17.63
2018-06-11T14:57:38.060Z,13.80
2018-06-11T15:00:07.147Z,12.93
2018-06-11T15:02:35.817Z,16.37
2018-06-11T15:05:04.512Z,15.23
2018-06-11T15:07:33.236Z,14.13
2018-06-11T15:10:02.584Z,7.43
2018-06-11T15:12:31.276Z,8.30
2018-06-11T15:14:59.976Z,5.97
2018-06-11T15:17:28.726Z,7.50
2018-06-11T15:19:57.412Z,6.87
2018-06-11T15:22:26.105Z,7.23
2018-06-11T15:24:54.851Z,7.83
2018-06-11T15:27:23.617Z,5.50
2018-06-11T15:29:52.518Z,5.17
2018-06-11T15:32:21.316Z,7.43
2018-06-11T15:34:50.029Z,8.43
2018-06-11T15:37:18.740Z,8.43
2018-06-11T15:39:47.547Z,8.27
2018-06-11T15:42:16.615Z,7.37
2018-06-11T15:44:45.489Z,9.50
2018-06-11T15:47:14.197Z,7.23
2018-06-11T15:49:43.661Z,7.57
2018-06-11T15:52:12.394Z,9.20
2018-06-11T15:54:41.551Z,10.23
2018-06-11T15:57:10.309Z,8.90
2018-06-11T15:59:39.688Z,6.87
2018-06-11T16:02:08.424Z,9.70
2018-06-11T16:04:37.838Z,8.50
2018-06-11T16:07:06.866Z,6.50
2018-06-11T16:09:35.969Z,7.10
2018-06-11T16:12:05.135Z,11.00
2018-06-11T16:14:33.970Z,5.60
2018-06-11T16:17:03.094Z,7.57
2018-06-11T16:19:32.090Z,9.50
2018-06-11T16:22:00.983Z,7.57
2018-06-11T16:24:30.511Z,6.23
2018-06-11T16:27:00.142Z,7.00
2018-06-11T16:29:30.729Z,7.43
2018-06-11T16:31:59.435Z,8.63
2018-06-11T16:34:28.139Z,6.67
2018-06-11T16:36:57.131Z,5.43
2018-06-11T16:39:25.779Z,9.83
2018-06-11T16:41:54.512Z,7.50
2018-06-11T16:44:23.237Z,10.90
2018-06-11T16:46:51.884Z,10.30
2018-06-11T16:49:20.635Z,9.80
2018-06-11T16:51:49.483Z,7.20
2018-06-11T16:54:18.335Z,9.70
2018-06-11T16:56:47.157Z,9.67
2018-06-11T16:59:17.102Z,4.80
2018-06-11T17:01:46.521Z,6.67
2018-06-11T17:04:15.396Z,7.40
2018-06-11T17:06:44.496Z,6.07
2018-06-11T17:09:13.235Z,8.50
2018-06-11T17:11:42.183Z,9.03
2018-06-11T17:14:11.113Z,7.13
2018-06-11T17:16:40.996Z,8.70
2018-06-11T17:19:10.273Z,5.97
2018-06-11T17:21:39.301Z,9.70
2018-06-11T17:24:08.005Z,5.07
2018-06-11T17:26:36.700Z,6.57
2018-06-11T17:29:05.380Z,4.87
2018-06-11T17:31:34.117Z,8.20
2018-06-11T17:34:02.795Z,6.10
2018-06-11T17:36:31.539Z,7.00
2018-06-11T17:39:00.244Z,8.20
2018-06-11T17:41:28.912Z,7.07
2018-06-11T17:43:57.780Z,12.67
2018-06-11T17:46:26.435Z,9.43
2018-06-11T17:48:55.104Z,8.87
2018-06-11T17:51:23.779Z,12.53
2018-06-11T17:53:52.515Z,13.83
2018-06-11T17:56:21.175Z,9.47
2018-06-11T17:58:49.947Z,10.23
2018-06-11T18:01:18.626Z,24.87
2018-06-11T18:03:47.251Z,9.63
2018-06-11T18:06:15.994Z,17.20
2018-06-11T18:08:44.718Z,29.93
2018-06-11T18:11:13.423Z,12.20
2018-06-11T18:13:42.055Z,13.47
2018-06-11T18:16:10.824Z,9.23
2018-06-11T18:18:39.485Z,10.93
2018-06-11T18:21:08.118Z,8.73
2018-06-11T18:23:37.396Z,5.40
2018-06-11T18:26:06.083Z,8.43
2018-06-11T18:28:34.716Z,9.03
2018-06-11T18:31:03.448Z,8.33
2018-06-11T18:33:32.111Z,6.07
2018-06-11T18:36:00.770Z,6.30
2018-06-11T18:38:29.511Z,7.53
2018-06-11T18:40:58.392Z,7.43
2018-06-11T18:43:27.221Z,8.70
2018-06-11T18:45:55.872Z,6.27
2018-06-11T18:48:24.926Z,7.23
2018-06-11T18:50:53.627Z,9.40
2018-06-11T18:53:22.272Z,8.00
2018-06-11T18:55:50.955Z,6.80
2018-06-11T18:58:19.694Z,9.10
2018-06-11T19:00:48.431Z,7.43
2018-06-11T19:03:17.368Z,7.60
2018-06-11T19:05:46.233Z,6.03
2018-06-11T19:08:14.970Z,9.07
2018-06-11T19:10:43.641Z,7.27
2018-06-11T19:13:12.377Z,8.90
2018-06-11T19:15:41.206Z,7.47
2018-06-11T19:18:09.877Z,5.40
2018-06-11T19:20:38.534Z,6.67
2018-06-11T19:23:07.213Z,13.63
2018-06-11T19:25:35.835Z,8.63
2018-06-11T19:28:04.552Z,10.17
2018-06-11T19:30:33.184Z,12.60
2018-06-11T19:33:01.916Z,9.50
2018-06-11T19:35:30.598Z,13.27
2018-06-11T19:37:59.267Z,18.57
2018-06-11T19:40:28.395Z,12.37
2018-06-11T19:42:57.082Z,11.53
2018-06-11T19:45:25.833Z,9.57
2018-06-11T19:47:54.584Z,15.40
2018-06-11T19:50:23.316Z,8.47
2018-06-11T19:52:51.968Z,7.70
2018-06-11T19:55:20.657Z,9.13
2018-06-11T19:57:49.458Z,8.10
2018-06-11T20:00:18.366Z,9.40
2018-06-11T20:02:47.143Z,7.53
2018-06-11T20:05:16.575Z,7.43
2018-06-11T20:07:45.623Z,7.67
2018-06-11T20:10:14.309Z,8.67
2018-06-11T20:12:42.978Z,8.67
2018-06-11T20:15:11.765Z,10.33
2018-06-11T20:17:40.453Z,13.63
2018-06-11T20:20:09.203Z,6.73
2018-06-11T20:22:38.563Z,5.87
2018-06-11T20:25:07.245Z,11.20
2018-06-11T20:27:36.028Z,6.53
2018-06-11T20:30:05.058Z,9.30
2018-06-11T20:32:33.851Z,8.27
2018-06-11T20:35:02.597Z,7.50
2018-06-11T20:37:31.255Z,6.83
2018-06-11T20:40:00.041Z,11.40
2018-06-11T20:42:28.743Z,19.93
2018-06-11T20:44:57.395Z,8.50
2018-06-11T20:47:26.092Z,7.97
2018-06-11T20:49:54.993Z,8.77
2018-06-11T20:52:23.683Z,8.37
2018-06-11T20:54:52.381Z,11.07
2018-06-11T20:57:21.177Z,5.37
2018-06-11T20:59:49.888Z,8.03
2018-06-11T21:02:18.698Z,5.67
2018-06-11T21:04:47.352Z,7.60
2018-06-11T21:07:16.065Z,8.90
2018-06-11T21:09:44.817Z,10.20
2018-06-11T21:12:13.569Z,8.67
2018-06-11T21:14:42.428Z,8.30
2018-06-11T21:17:11.096Z,6.60
2018-06-11T21:19:39.880Z,7.97
2018-06-11T21:22:09.227Z,7.30
2018-06-11T21:24:38.051Z,12.43
2018-06-11T21:27:06.764Z,10.97
2018-06-11T21:29:35.622Z,11.00
2018-06-11T21:32:04.412Z,8.30
2018-06-11T21:34:33.150Z,11.50
2018-06-11T21:37:01.832Z,8.23
2018-06-11T21:39:31.813Z,6.50
2018-06-11T21:42:00.549Z,11.13
2018-06-11T21:44:29.367Z,8.47
2018-06-11T21:46:58.113Z,8.83
2018-06-11T21:49:26.838Z,6.97
2018-06-11T21:51:55.648Z,8.60
2018-06-11T21:54:24.354Z,6.37
2018-06-11T21:56:53.759Z,6.63
2018-06-11T21:59:22.471Z,7.20
2018-06-11T22:01:55.764Z,7.87
2018-06-11T22:04:24.553Z,9.10
2018-06-11T22:06:53.266Z,9.87
2018-06-11T22:09:21.937Z,9.50
2018-06-11T22:11:50.709Z,10.67
2018-06-11T22:14:19.493Z,10.80
2018-06-11T22:16:48.353Z,9.33
2018-06-11T22:19:17.081Z,6.37
2018-06-11T22:21:45.831Z,7.00
2018-06-11T22:24:14.471Z,5.87
2018-06-11T22:26:43.165Z,5.63
2018-06-11T22:29:11.889Z,11.33
2018-06-11T22:31:40.599Z,6.63
2018-06-11T22:34:09.279Z,6.30
2018-06-11T22:36:37.986Z,6.90
2018-06-11T22:39:08.005Z,4.87
2018-06-11T22:41:39.577Z,4.47
2018-06-11T22:44:08.357Z,6.83
2018-06-11T22:46:37.561Z,4.90
2018-06-11T22:49:07.537Z,6.30
2018-06-11T22:51:36.250Z,4.13
2018-06-11T22:54:09.166Z,4.07
2018-06-11T22:56:38.012Z,8.37
2018-06-11T22:59:06.723Z,7.07
2018-06-11T23:01:35.459Z,3.90
2018-06-11T23:04:04.280Z,5.33
2018-06-11T23:06:32.994Z,8.03
2018-06-11T23:09:01.781Z,3.37
2018-06-11T23:11:30.520Z,2.63
2018-06-11T23:13:59.227Z,4.40
2018-06-11T23:16:27.928Z,4.80
2018-06-11T23:18:56.724Z,3.23
2018-06-11T23:21:25.449Z,4.33
2018-06-11T23:23:54.138Z,4.80
2018-06-11T23:26:22.833Z,4.90
2018-06-11T23:28:51.624Z,3.77
2018-06-11T23:31:20.784Z,7.97
2018-06-11T23:33:49.501Z,4.20
2018-06-11T23:36:18.250Z,5.13
2018-06-11T23:38:46.983Z,7.83
2018-06-11T23:41:15.694Z,4.43
2018-06-11T23:43:44.399Z,5.00
2018-06-11T23:46:14.028Z,6.10
2018-06-11T23:48:42.773Z,6.50
2018-06-11T23:51:11.479Z,3.80
2018-06-11T23:53:40.240Z,5.00
2018-06-11T23:56:08.939Z,6.43
2018-06-11T23:58:37.730Z,6.37
